createdAt,value
2023-03-15T00:00:50.369Z,51.66
2023-03-15T00:03:17.366Z,52.13
2023-03-15T00:05:45.340Z,54.93
2023-03-15T00:08:12.400Z,56.09
2023-03-15T00:10:43.093Z,55.43
2023-03-15T00:13:10.450Z,55.26
2023-03-15T00:15:37.449Z,54.63
2023-03-15T00:18:04.426Z,56.04
2023-03-15T00:20:31.611Z,57.28
2023-03-15T00:22:58.616Z,57.83
2023-03-15T00:25:25.808Z,59.03
2023-03-15T00:27:52.948Z,58.43
2023-03-15T00:30:19.995Z,57.27
2023-03-15T00:32:46.972Z,58.79
2023-03-15T00:35:14.093Z,60.67
2023-03-15T00:37:41.473Z,58.82
2023-03-15T00:40:09.218Z,64.58
2023-03-15T00:42:36.326Z,64.61
2023-03-15T00:45:03.529Z,65.24
2023-03-15T00:47:30.516Z,65.59
2023-03-15T00:49:57.504Z,64.41
2023-03-15T00:52:24.754Z,61.52
2023-03-15T00:54:53.378Z,63.81
2023-03-15T00:57:20.510Z,64.47
2023-03-15T00:59:47.638Z,66.48
2023-03-15T01:02:14.700Z,64.35
2023-03-15T01:04:41.662Z,68.58
2023-03-15T01:07:08.636Z,65.79
2023-03-15T01:09:35.568Z,68.68
2023-03-15T01:12:02.629Z,65.35
2023-03-15T01:14:31.710Z,64.86
2023-03-15T01:16:58.898Z,64.78
2023-03-15T01:19:25.842Z,62.92
2023-03-15T01:21:53.569Z,64.74
2023-03-15T01:24:20.635Z,65.06
2023-03-15T01:26:50.100Z,64.87
2023-03-15T01:29:18.141Z,62.71
2023-03-15T01:31:45.404Z,61.37
2023-03-15T01:34:12.562Z,63.16
2023-03-15T01:36:39.529Z,60.71
2023-03-15T01:39:06.671Z,62.33
2023-03-15T01:41:41.128Z,59.82
2023-03-15T01:44:15.437Z,57.56
2023-03-15T01:46:43.851Z,58.04
2023-03-15T01:49:32.747Z,58.14
2023-03-15T01:52:06.490Z,60.53
2023-03-15T01:54:42.540Z,62.10
2023-03-15T01:57:25.385Z,63.13
2023-03-15T02:00:16.702Z,60.95
2023-03-15T02:03:04.189Z,63.55
2023-03-15T02:05:35.716Z,61.76
2023-03-15T02:08:06.027Z,60.26
2023-03-15T02:10:40.843Z,60.98
2023-03-15T02:13:08.305Z,63.55
2023-03-15T02:15:35.531Z,62.67
2023-03-15T02:18:05.477Z,63.40
2023-03-15T02:20:38.328Z,67.41
2023-03-15T02:23:12.220Z,68.19
2023-03-15T02:26:16.726Z,64.97
2023-03-15T02:28:43.772Z,65.32
2023-03-15T02:31:12.439Z,65.71
2023-03-15T02:33:42.007Z,68.44
2023-03-15T02:36:11.663Z,71.49
2023-03-15T02:38:38.706Z,69.31
2023-03-15T02:41:05.850Z,70.28
2023-03-15T02:43:34.342Z,68.35
2023-03-15T02:46:02.088Z,70.13
2023-03-15T02:48:31.462Z,68.25
2023-03-15T02:50:58.731Z,70.33
2023-03-15T02:53:26.208Z,66.85
2023-03-15T02:55:53.425Z,66.24
2023-03-15T02:58:20.486Z,65.81
2023-03-15T03:00:48.864Z,64.33
2023-03-15T03:03:18.702Z,62.20
2023-03-15T03:05:45.732Z,62.40
2023-03-15T03:08:16.429Z,61.37
2023-03-15T03:10:43.902Z,60.41
2023-03-15T03:13:10.893Z,61.75
2023-03-15T03:15:39.605Z,61.78
2023-03-15T03:18:06.655Z,66.04
2023-03-15T03:20:33.786Z,64.66
2023-03-15T03:23:05.926Z,62.37
2023-03-15T03:25:33.778Z,62.33
2023-03-15T03:28:04.066Z,64.57
2023-03-15T03:30:31.678Z,62.33
2023-03-15T03:32:58.879Z,62.46
2023-03-15T03:35:26.069Z,61.00
2023-03-15T03:37:53.919Z,61.87
2023-03-15T03:40:27.050Z,64.31
2023-03-15T03:42:54.228Z,63.43
2023-03-15T03:45:21.347Z,62.45
2023-03-15T03:47:52.205Z,63.88
2023-03-15T03:50:19.191Z,67.11
2023-03-15T03:52:46.186Z,68.51
2023-03-15T03:55:25.334Z,66.90
2023-03-15T03:57:53.818Z,67.09
2023-03-15T04:00:36.851Z,64.77
2023-03-15T04:03:04.972Z,65.85
2023-03-15T04:05:34.854Z,66.09
2023-03-15T04:08:01.947Z,64.77
2023-03-15T04:10:35.189Z,64.43
2023-03-15T04:13:03.237Z,63.03
2023-03-15T04:15:31.561Z,62.83
2023-03-15T04:17:59.582Z,62.27
2023-03-15T04:20:35.500Z,62.23
2023-03-15T04:23:03.323Z,61.46
2023-03-15T04:26:08.770Z,60.58
2023-03-15T04:28:57.092Z,62.03
2023-03-15T04:31:47.025Z,63.51
2023-03-15T04:34:30.311Z,66.07
2023-03-15T04:36:57.379Z,66.81
2023-03-15T04:39:47.213Z,64.74
2023-03-15T04:42:30.641Z,64.48
2023-03-15T04:45:20.689Z,65.18
2023-03-15T04:48:13.859Z,63.58
2023-03-15T04:50:58.095Z,61.00
2023-03-15T04:53:54.117Z,59.63
2023-03-15T04:56:39.482Z,59.97
2023-03-15T04:59:18.046Z,60.54
2023-03-15T05:02:04.130Z,64.01
2023-03-15T05:04:37.150Z,62.71
2023-03-15T05:07:30.481Z,67.42
2023-03-15T05:10:17.521Z,66.00
2023-03-15T05:13:19.145Z,64.49
2023-03-15T05:15:57.831Z,66.81
2023-03-15T05:18:57.663Z,66.69
2023-03-15T05:21:35.107Z,66.56
2023-03-15T05:24:22.423Z,65.26
2023-03-15T05:27:09.747Z,66.47
2023-03-15T05:29:57.113Z,64.42
2023-03-15T05:32:26.869Z,63.30
2023-03-15T05:35:14.048Z,65.52
2023-03-15T05:37:46.819Z,64.66
2023-03-15T05:40:49.197Z,63.07
2023-03-15T05:43:34.515Z,61.72
2023-03-15T05:46:24.784Z,60.26
2023-03-15T05:49:00.193Z,60.47
2023-03-15T05:51:35.387Z,60.20
2023-03-15T05:54:17.380Z,60.82
2023-03-15T05:57:13.630Z,62.33
2023-03-15T06:00:10.898Z,62.13
2023-03-15T06:02:41.608Z,61.06
2023-03-15T06:05:28.974Z,62.00
2023-03-15T06:07:57.053Z,61.07
2023-03-15T06:10:25.709Z,59.96
2023-03-15T06:12:55.531Z,63.12
2023-03-15T06:15:23.657Z,62.65
2023-03-15T06:17:52.238Z,61.92
2023-03-15T06:20:19.397Z,61.16
2023-03-15T06:22:46.335Z,61.26
2023-03-15T06:25:32.304Z,60.06
2023-03-15T06:27:59.578Z,59.74
2023-03-15T06:30:27.052Z,61.14
2023-03-15T06:32:57.689Z,60.75
2023-03-15T06:35:24.905Z,59.80
2023-03-15T06:37:53.108Z,62.11
2023-03-15T06:40:20.172Z,62.73
2023-03-15T06:42:48.224Z,63.47
2023-03-15T06:45:17.839Z,62.58
2023-03-15T06:47:46.022Z,62.25
2023-03-15T06:50:13.765Z,62.54
2023-03-15T06:52:40.964Z,62.17
2023-03-15T06:55:08.530Z,60.08
2023-03-15T06:57:36.086Z,57.65
2023-03-15T07:00:03.420Z,57.53
2023-03-15T07:02:37.072Z,57.99
2023-03-15T07:05:04.804Z,60.73
2023-03-15T07:07:31.752Z,60.23
2023-03-15T07:09:58.727Z,59.39
2023-03-15T07:12:25.762Z,61.40
2023-03-15T07:14:52.696Z,59.93
2023-03-15T07:17:19.776Z,58.81
2023-03-15T07:19:55.817Z,59.83
2023-03-15T07:22:24.053Z,62.09
2023-03-15T07:24:51.528Z,62.93
2023-03-15T07:27:19.571Z,61.21
2023-03-15T07:29:46.677Z,60.45
2023-03-15T07:32:13.753Z,60.72
2023-03-15T07:34:40.876Z,60.39
2023-03-15T07:37:08.111Z,59.73
2023-03-15T07:39:35.381Z,60.54
2023-03-15T07:42:02.546Z,58.76
2023-03-15T07:44:39.019Z,58.39
2023-03-15T07:47:06.199Z,58.37
2023-03-15T07:49:34.687Z,57.59
2023-03-15T07:52:01.829Z,56.69
2023-03-15T07:54:31.710Z,60.60
2023-03-15T07:56:58.756Z,60.77
2023-03-15T07:59:25.828Z,59.93
2023-03-15T08:01:53.009Z,62.25
2023-03-15T08:04:20.160Z,58.85
2023-03-15T08:06:47.135Z,59.67
2023-03-15T08:09:14.140Z,62.25
2023-03-15T08:11:42.148Z,60.26
2023-03-15T08:14:10.710Z,59.30
2023-03-15T08:16:37.827Z,59.41
2023-03-15T08:19:04.832Z,60.81
2023-03-15T08:21:33.884Z,58.62
2023-03-15T08:24:01.229Z,58.83
2023-03-15T08:26:28.235Z,58.29
2023-03-15T08:28:55.321Z,56.97
2023-03-15T08:31:23.393Z,57.50
2023-03-15T08:33:50.516Z,59.35
2023-03-15T08:36:17.631Z,56.58
2023-03-15T08:38:44.660Z,53.84
2023-03-15T08:41:11.726Z,55.40
2023-03-15T08:43:38.696Z,54.83
2023-03-15T08:46:05.814Z,51.85
2023-03-15T08:48:32.850Z,51.22
2023-03-15T08:51:04.349Z,50.73
2023-03-15T08:53:31.524Z,53.50
2023-03-15T08:55:58.681Z,54.25
2023-03-15T08:58:25.878Z,52.63
2023-03-15T09:00:53.334Z,55.38
2023-03-15T09:03:20.636Z,52.70
2023-03-15T09:05:47.729Z,52.55
2023-03-15T09:08:17.019Z,52.60
2023-03-15T09:10:44.493Z,52.75
2023-03-15T09:13:12.348Z,51.33
2023-03-15T09:15:39.389Z,51.63
2023-03-15T09:18:06.493Z,49.50
2023-03-15T09:20:33.536Z,50.37
2023-03-15T09:23:00.889Z,51.29
2023-03-15T09:25:27.907Z,49.44
2023-03-15T09:27:55.726Z,51.22
2023-03-15T09:30:22.768Z,48.81
2023-03-15T09:32:49.944Z,48.04
2023-03-15T09:35:18.884Z,47.91
2023-03-15T09:37:46.328Z,48.24
2023-03-15T09:40:19.397Z,46.69
2023-03-15T09:43:06.320Z,48.73
2023-03-15T09:45:57.837Z,49.05
2023-03-15T09:48:55.481Z,49.84
2023-03-15T09:51:48.079Z,50.16
2023-03-15T09:54:20.588Z,49.64
2023-03-15T09:57:02.462Z,50.88
2023-03-15T09:59:39.014Z,49.26
2023-03-15T10:02:32.540Z,49.15
2023-03-15T10:05:19.138Z,47.33
2023-03-15T10:07:46.285Z,49.39
2023-03-15T10:10:21.163Z,50.19
2023-03-15T10:12:52.553Z,48.23
2023-03-15T10:16:05.977Z,46.20
2023-03-15T10:18:44.261Z,47.96
2023-03-15T10:21:13.647Z,46.62
2023-03-15T10:23:55.973Z,46.67
2023-03-15T10:26:32.912Z,45.66
2023-03-15T10:29:01.209Z,43.07
2023-03-15T10:31:41.394Z,43.33
2023-03-15T10:34:14.058Z,42.84
2023-03-15T10:36:54.382Z,41.79
2023-03-15T10:39:22.356Z,44.54
2023-03-15T10:41:50.271Z,43.67
2023-03-15T10:44:24.682Z,44.18
2023-03-15T10:47:21.388Z,43.48
2023-03-15T10:49:50.930Z,43.16
2023-03-15T10:52:44.669Z,47.02
2023-03-15T10:55:16.606Z,44.04
2023-03-15T10:57:55.120Z,46.05
2023-03-15T11:00:31.234Z,45.74
2023-03-15T11:03:16.124Z,45.91
2023-03-15T11:05:47.822Z,45.44
2023-03-15T11:08:22.704Z,43.36
2023-03-15T11:10:59.822Z,43.57
2023-03-15T11:13:28.257Z,43.14
2023-03-15T11:15:56.868Z,42.60
2023-03-15T11:18:38.148Z,40.75
2023-03-15T11:21:07.288Z,40.58
2023-03-15T11:23:39.059Z,40.00
2023-03-15T11:26:08.610Z,40.51
2023-03-15T11:28:36.711Z,39.54
2023-03-15T11:31:04.752Z,41.46
2023-03-15T11:33:58.607Z,41.30
2023-03-15T11:36:27.874Z,39.04
2023-03-15T11:38:55.108Z,39.50
2023-03-15T11:41:21.992Z,40.78
2023-03-15T11:43:52.224Z,41.03
2023-03-15T11:46:41.046Z,40.15
2023-03-15T11:49:45.769Z,37.20
2023-03-15T11:52:12.969Z,37.75
2023-03-15T11:54:40.181Z,38.74
2023-03-15T11:57:27.796Z,39.07
2023-03-15T11:59:57.970Z,39.16
2023-03-15T12:02:26.453Z,37.65
2023-03-15T12:04:54.584Z,39.38
2023-03-15T12:07:24.599Z,39.40
2023-03-15T12:09:52.541Z,38.74
2023-03-15T12:12:25.639Z,39.51
2023-03-15T12:15:06.238Z,38.75
2023-03-15T12:17:43.104Z,36.41
2023-03-15T12:20:18.004Z,38.02
2023-03-15T12:22:51.902Z,38.70
2023-03-15T12:25:31.166Z,37.72
2023-03-15T12:27:58.663Z,37.69
2023-03-15T12:30:33.673Z,38.22
2023-03-15T12:33:01.839Z,37.54
2023-03-15T12:35:32.650Z,37.71
2023-03-15T12:38:01.521Z,37.12
2023-03-15T12:40:28.455Z,37.56
2023-03-15T12:42:57.528Z,38.92
2023-03-15T12:45:27.618Z,38.49
2023-03-15T12:47:54.488Z,36.90
2023-03-15T12:50:43.837Z,36.05
2023-03-15T12:53:22.891Z,36.42
2023-03-15T12:55:56.527Z,36.14
2023-03-15T12:58:28.712Z,36.67
2023-03-15T13:00:56.018Z,35.96
2023-03-15T13:03:24.160Z,37.32
2023-03-15T13:06:12.818Z,36.19
2023-03-15T13:09:08.950Z,35.75
2023-03-15T13:11:59.261Z,35.89
2023-03-15T13:14:51.042Z,35.66
2023-03-15T13:17:33.566Z,35.89
2023-03-15T13:20:20.458Z,35.78
2023-03-15T13:22:55.439Z,34.69
2023-03-15T13:25:46.731Z,33.99
2023-03-15T13:28:23.873Z,34.51
2023-03-15T13:30:55.621Z,33.78
2023-03-15T13:33:30.057Z,35.04
2023-03-15T13:36:11.561Z,33.35
2023-03-15T13:38:43.625Z,33.54
2023-03-15T13:41:25.062Z,35.22
2023-03-15T13:43:54.003Z,37.12
2023-03-15T13:46:23.394Z,36.36
2023-03-15T13:48:51.262Z,37.61
2023-03-15T13:51:22.947Z,37.10
2023-03-15T13:53:52.700Z,37.24
2023-03-15T13:56:37.373Z,37.47
2023-03-15T13:59:12.448Z,38.20
2023-03-15T14:01:40.061Z,38.23
2023-03-15T14:04:17.521Z,42.85
2023-03-15T14:06:47.314Z,44.22
2023-03-15T14:09:24.478Z,45.51
2023-03-15T14:12:07.730Z,43.90
2023-03-15T14:14:38.291Z,42.14
2023-03-15T14:17:18.737Z,41.78
2023-03-15T14:19:54.548Z,41.81
2023-03-15T14:22:21.489Z,44.55
2023-03-15T14:24:50.288Z,44.67
2023-03-15T14:27:19.536Z,45.35
2023-03-15T14:29:54.616Z,49.46
2023-03-15T14:32:24.682Z,48.20
2023-03-15T14:34:56.801Z,48.83
2023-03-15T14:37:44.364Z,48.14
2023-03-15T14:40:28.555Z,48.82
2023-03-15T14:42:55.499Z,48.03
2023-03-15T14:45:22.469Z,49.19
2023-03-15T14:47:59.087Z,51.09
2023-03-15T14:50:28.770Z,49.46
2023-03-15T14:52:58.261Z,48.71
2023-03-15T14:55:29.410Z,47.58
2023-03-15T14:57:56.949Z,46.79
2023-03-15T15:00:24.889Z,48.28
2023-03-15T15:02:52.791Z,49.32
2023-03-15T15:05:34.053Z,48.12
2023-03-15T15:08:06.331Z,46.10
2023-03-15T15:10:34.822Z,46.08
2023-03-15T15:13:06.748Z,46.57
2023-03-15T15:15:43.996Z,49.11
2023-03-15T15:18:18.613Z,49.44
2023-03-15T15:20:46.407Z,49.09
2023-03-15T15:23:32.177Z,49.39
2023-03-15T15:26:01.661Z,48.81
2023-03-15T15:28:36.076Z,48.57
2023-03-15T15:31:08.572Z,48.68
2023-03-15T15:33:35.884Z,48.26
2023-03-15T15:36:03.723Z,50.01
2023-03-15T15:38:39.730Z,50.07
2023-03-15T15:41:15.126Z,51.31
2023-03-15T15:43:43.278Z,51.36
2023-03-15T15:46:12.470Z,50.17
2023-03-15T15:48:40.816Z,48.77
2023-03-15T15:51:23.214Z,48.96
2023-03-15T15:53:50.978Z,50.12
2023-03-15T15:56:18.449Z,50.05
2023-03-15T15:58:45.453Z,49.79
2023-03-15T16:01:14.114Z,49.81
2023-03-15T16:03:41.923Z,48.86
2023-03-15T16:06:19.196Z,48.52
2023-03-15T16:08:46.895Z,50.86
2023-03-15T16:11:15.209Z,49.40
2023-03-15T16:13:43.169Z,49.36
2023-03-15T16:16:15.733Z,47.94
2023-03-15T16:18:42.989Z,47.88
2023-03-15T16:21:24.590Z,48.79
2023-03-15T16:23:58.613Z,46.52
2023-03-15T16:26:26.193Z,48.76
2023-03-15T16:28:53.299Z,47.27
2023-03-15T16:31:22.067Z,46.95
2023-03-15T16:33:49.833Z,46.58
2023-03-15T16:36:20.987Z,47.50
2023-03-15T16:38:48.037Z,46.98
2023-03-15T16:41:15.821Z,46.11
2023-03-15T16:43:43.019Z,47.24
2023-03-15T16:46:12.593Z,44.76
2023-03-15T16:48:39.606Z,45.42
2023-03-15T16:51:06.651Z,44.59
2023-03-15T16:53:35.574Z,44.08
2023-03-15T16:56:03.985Z,45.19
2023-03-15T16:58:31.425Z,44.63
2023-03-15T17:00:58.403Z,44.46
2023-03-15T17:03:27.430Z,44.74
2023-03-15T17:05:54.838Z,45.93
2023-03-15T17:08:22.078Z,46.34
2023-03-15T17:10:49.478Z,45.42
2023-03-15T17:13:17.465Z,44.20
2023-03-15T17:15:45.342Z,45.36
2023-03-15T17:18:19.471Z,44.42
2023-03-15T17:20:47.525Z,45.84
2023-03-15T17:23:14.675Z,46.13
2023-03-15T17:25:42.715Z,48.61
2023-03-15T17:28:09.797Z,46.86
2023-03-15T17:30:37.374Z,45.60
2023-03-15T17:33:04.740Z,45.90
2023-03-15T17:35:38.912Z,50.15
2023-03-15T17:38:06.981Z,47.81
2023-03-15T17:40:35.108Z,46.59
2023-03-15T17:43:02.782Z,47.50
2023-03-15T17:45:31.535Z,47.23
2023-03-15T17:47:58.712Z,47.32
2023-03-15T17:50:29.885Z,46.91
2023-03-15T17:52:57.460Z,50.55
2023-03-15T17:55:25.912Z,48.54
2023-03-15T17:57:55.503Z,47.74
2023-03-15T18:00:23.778Z,46.90
2023-03-15T18:02:55.736Z,46.20
2023-03-15T18:05:25.198Z,44.67
2023-03-15T18:07:58.717Z,44.91
2023-03-15T18:10:28.691Z,46.83
2023-03-15T18:12:55.775Z,46.16
2023-03-15T18:15:23.835Z,45.70
2023-03-15T18:17:50.956Z,45.90
2023-03-15T18:20:18.607Z,46.34
2023-03-15T18:22:45.601Z,46.54
2023-03-15T18:25:23.486Z,45.65
2023-03-15T18:27:50.538Z,45.61
2023-03-15T18:30:19.037Z,46.03
2023-03-15T18:32:46.125Z,46.04
2023-03-15T18:35:18.152Z,46.45
2023-03-15T18:37:45.423Z,47.25
2023-03-15T18:40:13.872Z,47.15
2023-03-15T18:42:41.605Z,46.35
2023-03-15T18:45:22.447Z,46.94
2023-03-15T18:47:49.594Z,49.17
2023-03-15T18:50:17.184Z,48.10
2023-03-15T18:52:44.557Z,49.81
2023-03-15T18:55:12.346Z,48.53
2023-03-15T18:57:41.664Z,47.35
2023-03-15T19:00:13.417Z,46.58
2023-03-15T19:02:45.080Z,49.51
2023-03-15T19:05:12.894Z,48.70
2023-03-15T19:07:40.270Z,48.72
2023-03-15T19:10:08.914Z,47.45
2023-03-15T19:12:36.926Z,47.30
2023-03-15T19:15:05.802Z,47.69
2023-03-15T19:17:33.546Z,48.80
2023-03-15T19:20:01.137Z,47.52
2023-03-15T19:22:31.088Z,46.40
2023-03-15T19:24:58.275Z,45.88
2023-03-15T19:27:25.660Z,45.73
2023-03-15T19:29:52.674Z,45.39
2023-03-15T19:32:20.957Z,45.58
2023-03-15T19:34:48.190Z,45.10
2023-03-15T19:37:15.404Z,44.98
2023-03-15T19:39:42.520Z,44.81
2023-03-15T19:42:09.612Z,44.53
2023-03-15T19:44:36.794Z,44.95
2023-03-15T19:47:04.092Z,45.31
2023-03-15T19:49:31.188Z,46.02
2023-03-15T19:51:59.274Z,46.09
2023-03-15T19:54:26.396Z,46.48
2023-03-15T19:56:54.605Z,45.67
2023-03-15T19:59:21.719Z,46.18
2023-03-15T20:01:49.187Z,46.61
2023-03-15T20:04:16.469Z,46.57
2023-03-15T20:06:43.609Z,46.82
2023-03-15T20:09:12.014Z,46.76
2023-03-15T20:11:39.126Z,46.87
2023-03-15T20:14:06.399Z,47.04
2023-03-15T20:16:33.513Z,46.60
2023-03-15T20:19:01.109Z,47.54
2023-03-15T20:21:29.488Z,47.53
2023-03-15T20:23:56.780Z,47.18
2023-03-15T20:26:25.276Z,47.44
2023-03-15T20:28:52.627Z,47.42
2023-03-15T20:31:19.881Z,47.49
2023-03-15T20:33:48.607Z,47.45
2023-03-15T20:36:16.383Z,47.00
2023-03-15T20:38:44.229Z,47.42
2023-03-15T20:41:13.961Z,47.76
2023-03-15T20:43:41.551Z,47.77
2023-03-15T20:46:10.036Z,47.93
2023-03-15T20:48:37.176Z,47.58
2023-03-15T20:51:04.626Z,46.76
2023-03-15T20:53:32.899Z,47.03
2023-03-15T20:56:00.879Z,47.26
2023-03-15T20:58:28.036Z,47.90
2023-03-15T21:01:03.396Z,49.42
2023-03-15T21:03:33.246Z,48.50
2023-03-15T21:06:01.135Z,47.19
2023-03-15T21:08:28.488Z,46.67
2023-03-15T21:10:55.760Z,46.55
2023-03-15T21:13:22.950Z,46.79
2023-03-15T21:15:52.087Z,46.80
2023-03-15T21:18:21.854Z,47.43
2023-03-15T21:21:02.509Z,48.20
2023-03-15T21:23:33.042Z,48.86
2023-03-15T21:26:02.166Z,47.69
2023-03-15T21:28:29.498Z,47.83
2023-03-15T21:30:56.686Z,47.82
2023-03-15T21:33:25.131Z,47.14
2023-03-15T21:35:52.577Z,46.05
2023-03-15T21:38:20.083Z,46.41
2023-03-15T21:40:47.834Z,47.03
2023-03-15T21:43:15.013Z,47.14
2023-03-15T21:45:42.626Z,47.86
2023-03-15T21:48:09.718Z,47.88
2023-03-15T21:50:36.746Z,47.22
2023-03-15T21:53:03.980Z,47.85
2023-03-15T21:55:33.606Z,47.07
2023-03-15T21:58:07.399Z,46.04
2023-03-15T22:00:34.830Z,46.74
2023-03-15T22:03:01.821Z,46.99
2023-03-15T22:05:28.895Z,47.03
2023-03-15T22:07:55.921Z,47.23
2023-03-15T22:10:23.380Z,47.37
2023-03-15T22:12:54.017Z,47.56
2023-03-15T22:15:22.117Z,46.67
2023-03-15T22:17:49.102Z,46.06
2023-03-15T22:20:16.932Z,47.16
2023-03-15T22:22:45.050Z,47.88
2023-03-15T22:25:12.820Z,47.77
2023-03-15T22:27:40.347Z,47.11
2023-03-15T22:30:08.665Z,47.58
2023-03-15T22:32:35.670Z,47.82
2023-03-15T22:35:02.734Z,47.28
2023-03-15T22:37:29.745Z,47.23
2023-03-15T22:39:56.869Z,46.54
2023-03-15T22:42:23.896Z,46.90
2023-03-15T22:44:51.007Z,46.73
2023-03-15T22:47:18.093Z,47.43
2023-03-15T22:49:45.041Z,47.79
2023-03-15T22:52:12.178Z,47.94
2023-03-15T22:54:42.816Z,47.25
2023-03-15T22:57:11.453Z,46.51
2023-03-15T22:59:38.963Z,47.18
2023-03-15T23:02:07.187Z,47.26
2023-03-15T23:04:34.361Z,47.04
2023-03-15T23:07:01.805Z,46.33
2023-03-15T23:09:28.861Z,46.54
2023-03-15T23:11:55.856Z,46.93
2023-03-15T23:14:22.837Z,47.34
2023-03-15T23:16:49.849Z,47.01
2023-03-15T23:19:16.989Z,46.84
2023-03-15T23:21:44.032Z,47.21
2023-03-15T23:24:13.890Z,46.78
2023-03-15T23:26:40.967Z,47.50
2023-03-15T23:29:10.807Z,47.02
2023-03-15T23:31:38.599Z,47.00
2023-03-15T23:34:06.102Z,46.45
2023-03-15T23:36:33.717Z,46.72
2023-03-15T23:39:00.699Z,47.50
2023-03-15T23:41:27.753Z,47.43
2023-03-15T23:43:54.692Z,46.29
2023-03-15T23:46:23.680Z,46.33
2023-03-15T23:48:52.436Z,46.32
2023-03-15T23:51:19.908Z,46.44
2023-03-15T23:53:46.891Z,47.27
2023-03-15T23:56:13.854Z,47.40
2023-03-15T23:58:40.936Z,46.83
